Aérodrome :







RETROUVEZ-NOUS SUR...

 
LOGIN :

S'inscrire | Disclaimer

   EN    FR    IT 

 









Légende :    VFR   VFR Marginal   IFR   IFR Intensif   IFR Très Intensif
Visi : 
Plafond : 
>= 8 km
>= 3000ft
5 à 8 km
1000 à 3000 ft
1500m à 5 km
500 à 1000 ft
800 à 1500m
200 à 500 ft
< 800m
< 200 ft
Symboles :   Orages  Brouillard  Fortes neiges  Fortes précipitations  Vent > 20 kt






- Altitude de l'aérodrome : 160 ft
- Code IATA : YYR


CYYR - Goose Bay

DERNIER METAR :
  • 260100Z 23019KT 15SM FEW030 FEW050 BKN075 06/01 A2970 RMK SC1SC1AC5 SLP061

METARs EXPIRÉS :
  • 260000Z 23017G25KT 15SM FEW035 FEW055 BKN070 06/01 A2969 RMK SC1SC1AC6 SLP056
  • 252300Z 24022KT 15SM FEW035 FEW060 BKN070 BKN080 06/01 A2966 RMK SC1SC1AC3AC2 SLP047

TAF TAF CYYR
Valide du 26 à 00h jusqu'au 27 à 00h UTC


252330Z 2600/2624 25020G35KT P6SM FEW030 SCT060 BKN080
BECMG 2600/2602 25015G30KT
BECMG 2606/2608 25015G25KT
FM261000 27015G25KT P6SM SCT030
BECMG 2613/2615 27015KT
FM261800 27012KT P6SM FEW030
BECMG 2621/2623 VRB03KT RMK NXT FCST BY 260600Z
FIR CZQX / Amérique du Nord



MET'MAP, la Météo Aéronautique d'un coup d'oeil ! - Copyright ORBIFLY Décembre 2007 - Disclaimer

ORBIFLY MET'MAP TEAM :

Programmation & Développement : Alexandra Zaïnal
Sur une idée originale de : Baudouin d'Aumeries
Assistance à la programmation : Marc-Olivier Méhu
Soutien technique & logistique : Manuel Goepfert

Contact : metmap@orbifly.com




SOURCES & CREDITS :

   NOAA